sensor_id;sensor_type;location;lat;lon;timestamp;temperature;humidity
67192;HTU21D;54120;53.504;49.426;2023-07-29T00:00:57;25.75;58.48
67192;HTU21D;54120;53.504;49.426;2023-07-29T00:03:26;25.74;58.35
67192;HTU21D;54120;53.504;49.426;2023-07-29T00:05:52;25.69;58.72
67192;HTU21D;54120;53.504;49.426;2023-07-29T00:08:18;25.61;59.30
67192;HTU21D;54120;53.504;49.426;2023-07-29T00:10:44;25.52;59.76
67192;HTU21D;54120;53.504;49.426;2023-07-29T00:13:10;25.48;59.54
67192;HTU21D;54120;53.504;49.426;2023-07-29T00:15:36;25.40;59.77
67192;HTU21D;54120;53.504;49.426;2023-07-29T00:18:02;25.44;59.35
67192;HTU21D;54120;53.504;49.426;2023-07-29T00:20:28;25.49;59.61
67192;HTU21D;54120;53.504;49.426;2023-07-29T00:22:54;25.48;58.82
67192;HTU21D;54120;53.504;49.426;2023-07-29T00:25:21;25.52;58.77
67192;HTU21D;54120;53.504;49.426;2023-07-29T00:27:48;25.46;58.81
67192;HTU21D;54120;53.504;49.426;2023-07-29T00:30:14;25.46;58.67
67192;HTU21D;54120;53.504;49.426;2023-07-29T00:32:40;25.44;58.76
67192;HTU21D;54120;53.504;49.426;2023-07-29T00:35:07;25.42;58.73
67192;HTU21D;54120;53.504;49.426;2023-07-29T00:37:33;25.40;58.90
67192;HTU21D;54120;53.504;49.426;2023-07-29T00:39:59;25.38;58.53
67192;HTU21D;54120;53.504;49.426;2023-07-29T00:42:25;25.44;58.38
67192;HTU21D;54120;53.504;49.426;2023-07-29T00:44:51;25.67;57.59
67192;HTU21D;54120;53.504;49.426;2023-07-29T00:47:17;25.76;57.01
67192;HTU21D;54120;53.504;49.426;2023-07-29T00:49:45;25.79;56.73
67192;HTU21D;54120;53.504;49.426;2023-07-29T00:52:11;25.88;56.14
67192;HTU21D;54120;53.504;49.426;2023-07-29T00:54:39;25.99;55.70
67192;HTU21D;54120;53.504;49.426;2023-07-29T00:57:08;26.11;55.15
67192;HTU21D;54120;53.504;49.426;2023-07-29T00:59:35;26.15;55.10
67192;HTU21D;54120;53.504;49.426;2023-07-29T01:02:02;26.20;54.63
67192;HTU21D;54120;53.504;49.426;2023-07-29T01:04:28;26.36;54.04
67192;HTU21D;54120;53.504;49.426;2023-07-29T01:10:00;26.61;52.94
67192;HTU21D;54120;53.504;49.426;2023-07-29T01:12:51;26.80;52.17
67192;HTU21D;54120;53.504;49.426;2023-07-29T01:15:31;26.91;52.08
67192;HTU21D;54120;53.504;49.426;2023-07-29T01:18:04;26.90;52.07
67192;HTU21D;54120;53.504;49.426;2023-07-29T01:20:33;26.87;52.39
67192;HTU21D;54120;53.504;49.426;2023-07-29T01:22:59;26.93;52.22
67192;HTU21D;54120;53.504;49.426;2023-07-29T01:25:25;27.07;51.79
67192;HTU21D;54120;53.504;49.426;2023-07-29T01:27:52;27.35;50.89
67192;HTU21D;54120;53.504;49.426;2023-07-29T01:30:31;27.37;51.00
67192;HTU21D;54120;53.504;49.426;2023-07-29T01:33:20;27.35;51.30
67192;HTU21D;54120;53.504;49.426;2023-07-29T01:35:54;27.20;51.82
67192;HTU21D;54120;53.504;49.426;2023-07-29T01:38:43;27.27;51.69
67192;HTU21D;54120;53.504;49.426;2023-07-29T01:41:10;27.44;51.16
67192;HTU21D;54120;53.504;49.426;2023-07-29T01:43:37;27.57;51.06
67192;HTU21D;54120;53.504;49.426;2023-07-29T01:46:15;27.58;51.22
67192;HTU21D;54120;53.504;49.426;2023-07-29T01:48:42;27.84;50.47
67192;HTU21D;54120;53.504;49.426;2023-07-29T01:51:11;28.13;49.68
67192;HTU21D;54120;53.504;49.426;2023-07-29T01:53:37;28.61;48.32
67192;HTU21D;54120;53.504;49.426;2023-07-29T01:56:03;30.03;44.66
67192;HTU21D;54120;53.504;49.426;2023-07-29T01:58:29;30.74;43.07
67192;HTU21D;54120;53.504;49.426;2023-07-29T02:00:55;31.12;42.10
67192;HTU21D;54120;53.504;49.426;2023-07-29T02:03:21;31.19;41.86
67192;HTU21D;54120;53.504;49.426;2023-07-29T02:05:47;31.96;40.32
67192;HTU21D;54120;53.504;49.426;2023-07-29T02:08:13;32.18;39.62
67192;HTU21D;54120;53.504;49.426;2023-07-29T02:10:40;32.27;39.43
67192;HTU21D;54120;53.504;49.426;2023-07-29T02:13:06;32.43;39.17
67192;HTU21D;54120;53.504;49.426;2023-07-29T02:15:32;32.58;39.04
67192;HTU21D;54120;53.504;49.426;2023-07-29T02:17:58;33.15;37.84
67192;HTU21D;54120;53.504;49.426;2023-07-29T02:20:25;33.22;37.86
67192;HTU21D;54120;53.504;49.426;2023-07-29T02:22:50;32.74;38.82
67192;HTU21D;54120;53.504;49.426;2023-07-29T02:25:16;33.11;38.33
67192;HTU21D;54120;53.504;49.426;2023-07-29T02:27:42;33.43;37.55
67192;HTU21D;54120;53.504;49.426;2023-07-29T02:30:10;33.44;37.51
67192;HTU21D;54120;53.504;49.426;2023-07-29T02:32:36;34.54;35.13
67192;HTU21D;54120;53.504;49.426;2023-07-29T02:35:02;34.35;35.41
67192;HTU21D;54120;53.504;49.426;2023-07-29T02:37:28;34.23;35.60
67192;HTU21D;54120;53.504;49.426;2023-07-29T02:39:54;34.03;36.30
67192;HTU21D;54120;53.504;49.426;2023-07-29T02:42:20;34.66;35.19
67192;HTU21D;54120;53.504;49.426;2023-07-29T02:44:47;35.53;33.39
67192;HTU21D;54120;53.504;49.426;2023-07-29T02:47:13;36.18;32.46
67192;HTU21D;54120;53.504;49.426;2023-07-29T02:49:39;36.36;32.07
67192;HTU21D;54120;53.504;49.426;2023-07-29T02:52:05;36.57;31.78
67192;HTU21D;54120;53.504;49.426;2023-07-29T02:54:31;35.29;33.55
67192;HTU21D;54120;53.504;49.426;2023-07-29T02:56:57;34.95;34.04
67192;HTU21D;54120;53.504;49.426;2023-07-29T02:59:23;35.43;33.75
67192;HTU21D;54120;53.504;49.426;2023-07-29T03:01:49;35.57;33.10
67192;HTU21D;54120;53.504;49.426;2023-07-29T03:04:15;35.95;32.19
67192;HTU21D;54120;53.504;49.426;2023-07-29T03:06:41;37.12;30.13
67192;HTU21D;54120;53.504;49.426;2023-07-29T03:09:08;37.36;29.44
67192;HTU21D;54120;53.504;49.426;2023-07-29T03:11:34;36.41;31.48
67192;HTU21D;54120;53.504;49.426;2023-07-29T03:14:00;36.42;31.47
67192;HTU21D;54120;53.504;49.426;2023-07-29T03:16:26;36.08;31.64
67192;HTU21D;54120;53.504;49.426;2023-07-29T03:18:52;36.12;31.91
67192;HTU21D;54120;53.504;49.426;2023-07-29T03:21:18;36.03;32.37
67192;HTU21D;54120;53.504;49.426;2023-07-29T03:23:44;36.22;31.61
67192;HTU21D;54120;53.504;49.426;2023-07-29T03:26:10;36.68;30.82
67192;HTU21D;54120;53.504;49.426;2023-07-29T03:28:39;37.84;28.66
67192;HTU21D;54120;53.504;49.426;2023-07-29T03:31:10;38.18;27.71
67192;HTU21D;54120;53.504;49.426;2023-07-29T03:33:36;37.55;29.26
67192;HTU21D;54120;53.504;49.426;2023-07-29T03:36:02;39.00;27.05
67192;HTU21D;54120;53.504;49.426;2023-07-29T03:38:28;40.11;25.14
67192;HTU21D;54120;53.504;49.426;2023-07-29T03:40:55;40.01;24.58
67192;HTU21D;54120;53.504;49.426;2023-07-29T03:43:21;39.95;24.96
67192;HTU21D;54120;53.504;49.426;2023-07-29T03:45:47;39.66;25.34
67192;HTU21D;54120;53.504;49.426;2023-07-29T03:48:13;39.45;25.64
67192;HTU21D;54120;53.504;49.426;2023-07-29T03:50:39;39.44;26.11
67192;HTU21D;54120;53.504;49.426;2023-07-29T03:53:05;39.33;24.99
67192;HTU21D;54120;53.504;49.426;2023-07-29T03:55:31;39.02;26.23
67192;HTU21D;54120;53.504;49.426;2023-07-29T03:57:59;39.89;24.82
67192;HTU21D;54120;53.504;49.426;2023-07-29T04:00:25;39.93;24.93
67192;HTU21D;54120;53.504;49.426;2023-07-29T04:02:51;39.83;24.99
67192;HTU21D;54120;53.504;49.426;2023-07-29T04:05:17;40.27;24.19
67192;HTU21D;54120;53.504;49.426;2023-07-29T04:07:44;39.69;24.94
67192;HTU21D;54120;53.504;49.426;2023-07-29T04:10:10;40.39;23.66
67192;HTU21D;54120;53.504;49.426;2023-07-29T04:12:36;40.62;23.64
67192;HTU21D;54120;53.504;49.426;2023-07-29T04:15:03;41.11;22.53
67192;HTU21D;54120;53.504;49.426;2023-07-29T04:17:29;41.88;21.78
67192;HTU21D;54120;53.504;49.426;2023-07-29T04:19:55;41.29;22.31
67192;HTU21D;54120;53.504;49.426;2023-07-29T04:22:21;41.20;22.33
67192;HTU21D;54120;53.504;49.426;2023-07-29T04:24:47;41.70;22.34
67192;HTU21D;54120;53.504;49.426;2023-07-29T04:27:13;41.29;22.16
67192;HTU21D;54120;53.504;49.426;2023-07-29T04:29:40;41.19;22.33
67192;HTU21D;54120;53.504;49.426;2023-07-29T04:32:06;42.31;20.63
67192;HTU21D;54120;53.504;49.426;2023-07-29T04:34:32;41.12;22.35
67192;HTU21D;54120;53.504;49.426;2023-07-29T04:36:58;41.71;21.92
67192;HTU21D;54120;53.504;49.426;2023-07-29T04:39:24;42.73;20.40
67192;HTU21D;54120;53.504;49.426;2023-07-29T04:41:50;41.13;22.42
67192;HTU21D;54120;53.504;49.426;2023-07-29T04:44:16;39.82;24.40
67192;HTU21D;54120;53.504;49.426;2023-07-29T04:46:42;39.62;25.29
67192;HTU21D;54120;53.504;49.426;2023-07-29T04:49:08;39.95;24.95
67192;HTU21D;54120;53.504;49.426;2023-07-29T04:51:34;41.30;22.20
67192;HTU21D;54120;53.504;49.426;2023-07-29T04:54:00;41.18;22.31
67192;HTU21D;54120;53.504;49.426;2023-07-29T04:56:26;42.00;20.75
67192;HTU21D;54120;53.504;49.426;2023-07-29T04:58:52;39.99;23.79
67192;HTU21D;54120;53.504;49.426;2023-07-29T05:01:19;38.29;26.35
67192;HTU21D;54120;53.504;49.426;2023-07-29T05:03:45;37.43;28.41
67192;HTU21D;54120;53.504;49.426;2023-07-29T05:06:12;38.70;26.12
67192;HTU21D;54120;53.504;49.426;2023-07-29T05:08:38;39.66;24.87
67192;HTU21D;54120;53.504;49.426;2023-07-29T05:11:04;37.56;27.86
67192;HTU21D;54120;53.504;49.426;2023-07-29T05:13:30;37.36;28.66
67192;HTU21D;54120;53.504;49.426;2023-07-29T05:15:56;37.13;28.74
67192;HTU21D;54120;53.504;49.426;2023-07-29T05:18:22;36.36;30.42
67192;HTU21D;54120;53.504;49.426;2023-07-29T05:20:48;36.44;30.18
67192;HTU21D;54120;53.504;49.426;2023-07-29T05:23:14;37.32;28.56
67192;HTU21D;54120;53.504;49.426;2023-07-29T05:25:40;37.82;27.99
67192;HTU21D;54120;53.504;49.426;2023-07-29T05:28:06;39.37;25.31
67192;HTU21D;54120;53.504;49.426;2023-07-29T05:30:33;40.62;22.67
67192;HTU21D;54120;53.504;49.426;2023-07-29T05:33:05;39.88;23.86
67192;HTU21D;54120;53.504;49.426;2023-07-29T05:35:33;40.02;24.05
67192;HTU21D;54120;53.504;49.426;2023-07-29T05:37:59;41.60;20.74
67192;HTU21D;54120;53.504;49.426;2023-07-29T05:40:25;41.32;21.26
67192;HTU21D;54120;53.504;49.426;2023-07-29T05:42:51;42.19;20.05
67192;HTU21D;54120;53.504;49.426;2023-07-29T05:45:17;41.88;20.41
67192;HTU21D;54120;53.504;49.426;2023-07-29T05:47:43;40.85;21.72
67192;HTU21D;54120;53.504;49.426;2023-07-29T05:50:09;40.38;22.82
67192;HTU21D;54120;53.504;49.426;2023-07-29T05:52:37;41.85;20.18
67192;HTU21D;54120;53.504;49.426;2023-07-29T05:55:03;40.72;22.43
67192;HTU21D;54120;53.504;49.426;2023-07-29T05:57:29;40.51;22.43
67192;HTU21D;54120;53.504;49.426;2023-07-29T05:59:55;40.17;23.14
67192;HTU21D;54120;53.504;49.426;2023-07-29T06:02:22;39.65;23.66
67192;HTU21D;54120;53.504;49.426;2023-07-29T06:04:48;39.45;24.16
67192;HTU21D;54120;53.504;49.426;2023-07-29T06:07:14;41.10;21.79
67192;HTU21D;54120;53.504;49.426;2023-07-29T06:09:40;41.26;21.15
67192;HTU21D;54120;53.504;49.426;2023-07-29T06:12:06;41.18;20.73
67192;HTU21D;54120;53.504;49.426;2023-07-29T06:14:32;40.68;21.68
67192;HTU21D;54120;53.504;49.426;2023-07-29T06:16:58;41.00;22.02
67192;HTU21D;54120;53.504;49.426;2023-07-29T06:19:24;41.74;20.73
67192;HTU21D;54120;53.504;49.426;2023-07-29T06:21:50;42.54;20.28
67192;HTU21D;54120;53.504;49.426;2023-07-29T06:24:16;41.07;21.98
67192;HTU21D;54120;53.504;49.426;2023-07-29T06:26:42;38.58;26.31
67192;HTU21D;54120;53.504;49.426;2023-07-29T06:29:09;38.75;25.37
67192;HTU21D;54120;53.504;49.426;2023-07-29T06:31:35;39.92;23.66
67192;HTU21D;54120;53.504;49.426;2023-07-29T06:34:01;41.79;20.82
67192;HTU21D;54120;53.504;49.426;2023-07-29T06:36:27;41.58;21.24
67192;HTU21D;54120;53.504;49.426;2023-07-29T06:38:53;40.46;21.55
67192;HTU21D;54120;53.504;49.426;2023-07-29T06:41:19;39.51;23.88
67192;HTU21D;54120;53.504;49.426;2023-07-29T06:43:45;39.99;23.26
67192;HTU21D;54120;53.504;49.426;2023-07-29T06:46:11;41.54;21.34
67192;HTU21D;54120;53.504;49.426;2023-07-29T06:48:37;42.24;20.77
67192;HTU21D;54120;53.504;49.426;2023-07-29T06:51:03;42.63;19.51
67192;HTU21D;54120;53.504;49.426;2023-07-29T06:53:29;42.14;20.40
67192;HTU21D;54120;53.504;49.426;2023-07-29T06:55:55;40.76;22.14
67192;HTU21D;54120;53.504;49.426;2023-07-29T06:58:21;41.00;22.13
67192;HTU21D;54120;53.504;49.426;2023-07-29T07:00:48;40.67;22.43
67192;HTU21D;54120;53.504;49.426;2023-07-29T07:03:14;41.46;21.53
67192;HTU21D;54120;53.504;49.426;2023-07-29T07:05:40;41.83;20.82
67192;HTU21D;54120;53.504;49.426;2023-07-29T07:08:06;41.72;20.96
67192;HTU21D;54120;53.504;49.426;2023-07-29T07:10:32;41.28;21.47
67192;HTU21D;54120;53.504;49.426;2023-07-29T07:12:59;40.66;21.68
67192;HTU21D;54120;53.504;49.426;2023-07-29T07:15:25;39.59;22.73
67192;HTU21D;54120;53.504;49.426;2023-07-29T07:17:52;40.15;22.18
67192;HTU21D;54120;53.504;49.426;2023-07-29T07:20:18;39.99;22.66
67192;HTU21D;54120;53.504;49.426;2023-07-29T07:22:44;40.92;21.12
67192;HTU21D;54120;53.504;49.426;2023-07-29T07:25:10;41.07;20.81
67192;HTU21D;54120;53.504;49.426;2023-07-29T07:27:36;41.13;20.33
67192;HTU21D;54120;53.504;49.426;2023-07-29T07:30:04;40.66;21.32
67192;HTU21D;54120;53.504;49.426;2023-07-29T07:32:31;40.29;21.95
67192;HTU21D;54120;53.504;49.426;2023-07-29T07:34:57;39.26;23.53
67192;HTU21D;54120;53.504;49.426;2023-07-29T07:37:23;38.95;24.00
67192;HTU21D;54120;53.504;49.426;2023-07-29T07:39:49;37.66;25.24
67192;HTU21D;54120;53.504;49.426;2023-07-29T07:42:15;38.15;25.65
67192;HTU21D;54120;53.504;49.426;2023-07-29T07:44:41;38.92;24.26
67192;HTU21D;54120;53.504;49.426;2023-07-29T07:47:07;38.84;24.85
67192;HTU21D;54120;53.504;49.426;2023-07-29T07:49:33;39.24;23.97
67192;HTU21D;54120;53.504;49.426;2023-07-29T07:51:59;38.49;25.34
67192;HTU21D;54120;53.504;49.426;2023-07-29T07:54:25;38.09;26.06
67192;HTU21D;54120;53.504;49.426;2023-07-29T07:56:51;37.32;28.04
67192;HTU21D;54120;53.504;49.426;2023-07-29T07:59:17;36.19;29.83
67192;HTU21D;54120;53.504;49.426;2023-07-29T08:01:43;35.71;31.15
67192;HTU21D;54120;53.504;49.426;2023-07-29T08:04:12;35.77;29.94
67192;HTU21D;54120;53.504;49.426;2023-07-29T08:06:38;35.52;30.24
67192;HTU21D;54120;53.504;49.426;2023-07-29T08:09:04;35.51;30.80
67192;HTU21D;54120;53.504;49.426;2023-07-29T08:11:30;35.69;30.79
67192;HTU21D;54120;53.504;49.426;2023-07-29T08:13:57;36.10;29.32
67192;HTU21D;54120;53.504;49.426;2023-07-29T08:16:24;36.14;29.26
67192;HTU21D;54120;53.504;49.426;2023-07-29T08:18:49;35.97;30.11
67192;HTU21D;54120;53.504;49.426;2023-07-29T08:21:16;36.44;29.26
67192;HTU21D;54120;53.504;49.426;2023-07-29T08:23:42;36.52;28.12
67192;HTU21D;54120;53.504;49.426;2023-07-29T08:26:08;35.98;29.45
67192;HTU21D;54120;53.504;49.426;2023-07-29T08:28:35;35.88;28.93
67192;HTU21D;54120;53.504;49.426;2023-07-29T08:31:02;35.44;29.66
67192;HTU21D;54120;53.504;49.426;2023-07-29T08:33:29;35.38;30.01
67192;HTU21D;54120;53.504;49.426;2023-07-29T08:35:55;35.30;30.13
67192;HTU21D;54120;53.504;49.426;2023-07-29T08:38:21;35.55;30.31
67192;HTU21D;54120;53.504;49.426;2023-07-29T08:40:57;35.66;30.29
67192;HTU21D;54120;53.504;49.426;2023-07-29T08:43:29;35.95;29.48
67192;HTU21D;54120;53.504;49.426;2023-07-29T08:45:59;35.83;28.74
67192;HTU21D;54120;53.504;49.426;2023-07-29T08:48:43;35.74;29.91
67192;HTU21D;54120;53.504;49.426;2023-07-29T08:51:10;35.85;29.33
67192;HTU21D;54120;53.504;49.426;2023-07-29T08:53:37;35.72;30.25
67192;HTU21D;54120;53.504;49.426;2023-07-29T08:56:04;35.84;30.06
67192;HTU21D;54120;53.504;49.426;2023-07-29T08:58:31;36.12;29.19
67192;HTU21D;54120;53.504;49.426;2023-07-29T09:00:57;36.08;29.42
67192;HTU21D;54120;53.504;49.426;2023-07-29T09:03:23;35.96;29.60
67192;HTU21D;54120;53.504;49.426;2023-07-29T09:05:51;35.97;30.10
67192;HTU21D;54120;53.504;49.426;2023-07-29T09:08:17;36.13;29.74
67192;HTU21D;54120;53.504;49.426;2023-07-29T09:10:43;35.95;28.47
67192;HTU21D;54120;53.504;49.426;2023-07-29T09:13:09;36.21;28.58
67192;HTU21D;54120;53.504;49.426;2023-07-29T09:15:36;36.15;27.68
67192;HTU21D;54120;53.504;49.426;2023-07-29T09:18:17;36.11;28.33
67192;HTU21D;54120;53.504;49.426;2023-07-29T09:20:46;35.92;28.70
67192;HTU21D;54120;53.504;49.426;2023-07-29T09:23:13;35.98;28.11
67192;HTU21D;54120;53.504;49.426;2023-07-29T09:25:40;35.94;28.90
67192;HTU21D;54120;53.504;49.426;2023-07-29T09:28:11;36.19;29.09
67192;HTU21D;54120;53.504;49.426;2023-07-29T09:30:44;36.04;28.45
67192;HTU21D;54120;53.504;49.426;2023-07-29T09:33:10;35.74;28.45
67192;HTU21D;54120;53.504;49.426;2023-07-29T09:35:37;36.03;27.41
67192;HTU21D;54120;53.504;49.426;2023-07-29T09:38:06;36.02;27.55
67192;HTU21D;54120;53.504;49.426;2023-07-29T09:40:39;35.95;27.94
67192;HTU21D;54120;53.504;49.426;2023-07-29T09:43:07;36.01;28.33
67192;HTU21D;54120;53.504;49.426;2023-07-29T09:45:34;35.95;28.26
67192;HTU21D;54120;53.504;49.426;2023-07-29T09:48:01;36.29;28.42
67192;HTU21D;54120;53.504;49.426;2023-07-29T09:50:29;36.11;28.42
67192;HTU21D;54120;53.504;49.426;2023-07-29T09:52:56;35.98;28.29
67192;HTU21D;54120;53.504;49.426;2023-07-29T09:55:26;36.18;28.37
67192;HTU21D;54120;53.504;49.426;2023-07-29T09:58:00;36.29;28.39
67192;HTU21D;54120;53.504;49.426;2023-07-29T10:00:28;36.73;27.89
67192;HTU21D;54120;53.504;49.426;2023-07-29T10:02:55;37.03;27.01
67192;HTU21D;54120;53.504;49.426;2023-07-29T10:05:25;37.14;27.07
67192;HTU21D;54120;53.504;49.426;2023-07-29T10:07:51;37.00;27.29
67192;HTU21D;54120;53.504;49.426;2023-07-29T10:10:17;36.93;28.01
67192;HTU21D;54120;53.504;49.426;2023-07-29T10:12:44;37.03;27.42
67192;HTU21D;54120;53.504;49.426;2023-07-29T10:15:10;37.23;26.97
67192;HTU21D;54120;53.504;49.426;2023-07-29T10:17:37;37.49;26.10
67192;HTU21D;54120;53.504;49.426;2023-07-29T10:20:05;37.55;26.38
67192;HTU21D;54120;53.504;49.426;2023-07-29T10:22:36;37.61;26.62
67192;HTU21D;54120;53.504;49.426;2023-07-29T10:25:17;37.57;24.48
67192;HTU21D;54120;53.504;49.426;2023-07-29T10:27:56;37.15;25.41
67192;HTU21D;54120;53.504;49.426;2023-07-29T10:30:24;37.25;25.55
67192;HTU21D;54120;53.504;49.426;2023-07-29T10:32:52;37.16;25.23
67192;HTU21D;54120;53.504;49.426;2023-07-29T10:35:19;37.01;25.70
67192;HTU21D;54120;53.504;49.426;2023-07-29T10:37:46;37.17;25.45
67192;HTU21D;54120;53.504;49.426;2023-07-29T10:40:12;36.89;25.78
67192;HTU21D;54120;53.504;49.426;2023-07-29T10:42:38;37.05;26.12
67192;HTU21D;54120;53.504;49.426;2023-07-29T10:45:24;37.56;25.25
67192;HTU21D;54120;53.504;49.426;2023-07-29T10:47:50;37.46;25.36
67192;HTU21D;54120;53.504;49.426;2023-07-29T10:50:21;37.45;24.69
67192;HTU21D;54120;53.504;49.426;2023-07-29T10:52:51;37.06;25.01
67192;HTU21D;54120;53.504;49.426;2023-07-29T10:55:25;37.10;25.07
67192;HTU21D;54120;53.504;49.426;2023-07-29T10:57:52;37.05;25.04
67192;HTU21D;54120;53.504;49.426;2023-07-29T11:00:20;36.60;25.84
67192;HTU21D;54120;53.504;49.426;2023-07-29T11:03:09;36.70;26.14
67192;HTU21D;54120;53.504;49.426;2023-07-29T11:05:43;37.04;25.73
67192;HTU21D;54120;53.504;49.426;2023-07-29T11:13:27;36.47;25.26
67192;HTU21D;54120;53.504;49.426;2023-07-29T11:15:54;36.52;25.78
67192;HTU21D;54120;53.504;49.426;2023-07-29T11:18:21;36.63;25.68
67192;HTU21D;54120;53.504;49.426;2023-07-29T11:20:47;36.89;25.10
67192;HTU21D;54120;53.504;49.426;2023-07-29T11:23:13;36.95;25.52
67192;HTU21D;54120;53.504;49.426;2023-07-29T11:25:39;36.91;25.09
67192;HTU21D;54120;53.504;49.426;2023-07-29T11:28:06;36.62;25.56
67192;HTU21D;54120;53.504;49.426;2023-07-29T11:30:32;36.84;25.02
67192;HTU21D;54120;53.504;49.426;2023-07-29T11:32:59;36.81;25.80
67192;HTU21D;54120;53.504;49.426;2023-07-29T11:35:25;36.83;25.52
67192;HTU21D;54120;53.504;49.426;2023-07-29T11:37:54;36.78;25.85
67192;HTU21D;54120;53.504;49.426;2023-07-29T11:40:21;36.61;26.16
67192;HTU21D;54120;53.504;49.426;2023-07-29T11:42:49;36.37;26.16
67192;HTU21D;54120;53.504;49.426;2023-07-29T11:45:19;36.25;26.23
67192;HTU21D;54120;53.504;49.426;2023-07-29T11:47:46;36.08;26.57
67192;HTU21D;54120;53.504;49.426;2023-07-29T11:50:13;35.87;25.85
67192;HTU21D;54120;53.504;49.426;2023-07-29T11:52:41;35.73;25.80
67192;HTU21D;54120;53.504;49.426;2023-07-29T11:55:08;35.53;25.38
67192;HTU21D;54120;53.504;49.426;2023-07-29T11:57:38;35.39;25.69
67192;HTU21D;54120;53.504;49.426;2023-07-29T12:00:06;35.24;25.96
67192;HTU21D;54120;53.504;49.426;2023-07-29T12:02:42;35.06;26.15
67192;HTU21D;54120;53.504;49.426;2023-07-29T12:05:13;34.86;26.85
67192;HTU21D;54120;53.504;49.426;2023-07-29T12:07:42;34.56;29.28
67192;HTU21D;54120;53.504;49.426;2023-07-29T12:10:09;32.37;36.43
67192;HTU21D;54120;53.504;49.426;2023-07-29T12:12:53;29.67;46.79
67192;HTU21D;54120;53.504;49.426;2023-07-29T12:15:27;27.60;64.27
67192;HTU21D;54120;53.504;49.426;2023-07-29T12:17:54;25.56;71.97
67192;HTU21D;54120;53.504;49.426;2023-07-29T12:20:22;24.03;80.50
67192;HTU21D;54120;53.504;49.426;2023-07-29T12:22:59;22.80;89.71
67192;HTU21D;54120;53.504;49.426;2023-07-29T12:25:31;21.97;95.76
67192;HTU21D;54120;53.504;49.426;2023-07-29T12:28:05;21.66;98.13
67192;HTU21D;54120;53.504;49.426;2023-07-29T12:30:32;22.20;94.88
67192;HTU21D;54120;53.504;49.426;2023-07-29T12:32:58;22.77;85.90
67192;HTU21D;54120;53.504;49.426;2023-07-29T12:35:25;23.31;81.36
67192;HTU21D;54120;53.504;49.426;2023-07-29T12:37:59;23.61;75.62
67192;HTU21D;54120;53.504;49.426;2023-07-29T12:40:26;24.10;75.34
67192;HTU21D;54120;53.504;49.426;2023-07-29T12:42:52;24.29;78.28
67192;HTU21D;54120;53.504;49.426;2023-07-29T12:45:18;24.20;75.76
67192;HTU21D;54120;53.504;49.426;2023-07-29T12:47:45;24.04;78.15
67192;HTU21D;54120;53.504;49.426;2023-07-29T12:50:11;24.49;77.98
67192;HTU21D;54120;53.504;49.426;2023-07-29T12:52:37;24.76;76.02
67192;HTU21D;54120;53.504;49.426;2023-07-29T12:55:03;24.14;76.73
67192;HTU21D;54120;53.504;49.426;2023-07-29T12:57:29;24.69;77.78
67192;HTU21D;54120;53.504;49.426;2023-07-29T12:59:56;25.35;75.36
67192;HTU21D;54120;53.504;49.426;2023-07-29T13:02:21;25.87;73.82
67192;HTU21D;54120;53.504;49.426;2023-07-29T13:04:47;25.95;71.99
67192;HTU21D;54120;53.504;49.426;2023-07-29T13:07:14;26.33;66.03
67192;HTU21D;54120;53.504;49.426;2023-07-29T13:09:40;26.58;68.12
67192;HTU21D;54120;53.504;49.426;2023-07-29T13:12:06;26.95;64.77
67192;HTU21D;54120;53.504;49.426;2023-07-29T13:14:32;26.97;57.61
67192;HTU21D;54120;53.504;49.426;2023-07-29T13:16:58;26.87;62.87
67192;HTU21D;54120;53.504;49.426;2023-07-29T13:19:24;26.64;63.95
67192;HTU21D;54120;53.504;49.426;2023-07-29T13:21:50;26.33;66.07
67192;HTU21D;54120;53.504;49.426;2023-07-29T13:24:16;26.13;69.07
67192;HTU21D;54120;53.504;49.426;2023-07-29T13:26:42;26.39;61.51
67192;HTU21D;54120;53.504;49.426;2023-07-29T13:29:08;25.93;70.02
67192;HTU21D;54120;53.504;49.426;2023-07-29T13:31:34;25.12;66.65
67192;HTU21D;54120;53.504;49.426;2023-07-29T13:34:00;25.28;68.58
67192;HTU21D;54120;53.504;49.426;2023-07-29T13:36:26;25.14;69.22
67192;HTU21D;54120;53.504;49.426;2023-07-29T13:38:52;24.76;69.46
67192;HTU21D;54120;53.504;49.426;2023-07-29T13:41:18;24.43;68.72
67192;HTU21D;54120;53.504;49.426;2023-07-29T13:43:44;24.21;71.22
67192;HTU21D;54120;53.504;49.426;2023-07-29T13:46:10;24.20;70.81
67192;HTU21D;54120;53.504;49.426;2023-07-29T13:48:36;24.13;73.21
67192;HTU21D;54120;53.504;49.426;2023-07-29T13:51:02;23.97;75.44
67192;HTU21D;54120;53.504;49.426;2023-07-29T13:53:28;23.73;77.85
67192;HTU21D;54120;53.504;49.426;2023-07-29T13:55:54;23.76;77.63
67192;HTU21D;54120;53.504;49.426;2023-07-29T13:58:20;23.89;74.43
67192;HTU21D;54120;53.504;49.426;2023-07-29T14:00:46;24.30;69.49
67192;HTU21D;54120;53.504;49.426;2023-07-29T14:03:13;24.89;63.56
67192;HTU21D;54120;53.504;49.426;2023-07-29T14:05:39;25.04;65.93
67192;HTU21D;54120;53.504;49.426;2023-07-29T14:08:05;24.70;65.14
67192;HTU21D;54120;53.504;49.426;2023-07-29T14:10:31;24.62;67.88
67192;HTU21D;54120;53.504;49.426;2023-07-29T14:12:57;24.65;67.38
67192;HTU21D;54120;53.504;49.426;2023-07-29T14:15:23;24.69;66.15
67192;HTU21D;54120;53.504;49.426;2023-07-29T14:17:49;24.73;66.81
67192;HTU21D;54120;53.504;49.426;2023-07-29T14:20:15;24.71;66.34
67192;HTU21D;54120;53.504;49.426;2023-07-29T14:22:42;24.92;65.42
67192;HTU21D;54120;53.504;49.426;2023-07-29T14:25:08;25.08;64.68
67192;HTU21D;54120;53.504;49.426;2023-07-29T14:27:34;25.00;64.74
67192;HTU21D;54120;53.504;49.426;2023-07-29T14:30:01;25.06;63.95
67192;HTU21D;54120;53.504;49.426;2023-07-29T14:32:27;25.09;62.41
67192;HTU21D;54120;53.504;49.426;2023-07-29T14:34:54;25.21;64.40
67192;HTU21D;54120;53.504;49.426;2023-07-29T14:37:20;25.04;64.38
67192;HTU21D;54120;53.504;49.426;2023-07-29T14:39:46;25.27;62.87
67192;HTU21D;54120;53.504;49.426;2023-07-29T14:42:11;25.30;63.27
67192;HTU21D;54120;53.504;49.426;2023-07-29T14:44:38;25.10;62.85
67192;HTU21D;54120;53.504;49.426;2023-07-29T14:47:05;25.14;63.17
67192;HTU21D;54120;53.504;49.426;2023-07-29T14:49:31;25.12;63.79
67192;HTU21D;54120;53.504;49.426;2023-07-29T14:51:57;25.21;62.57
67192;HTU21D;54120;53.504;49.426;2023-07-29T14:54:23;25.32;63.66
67192;HTU21D;54120;53.504;49.426;2023-07-29T14:56:49;25.22;62.32
67192;HTU21D;54120;53.504;49.426;2023-07-29T14:59:15;25.22;60.86
67192;HTU21D;54120;53.504;49.426;2023-07-29T15:01:41;25.34;61.41
67192;HTU21D;54120;53.504;49.426;2023-07-29T15:04:07;25.33;61.52
67192;HTU21D;54120;53.504;49.426;2023-07-29T15:06:33;25.36;61.54
67192;HTU21D;54120;53.504;49.426;2023-07-29T15:08:59;25.45;60.35
67192;HTU21D;54120;53.504;49.426;2023-07-29T15:11:25;25.47;59.43